Aktualne dane pomiarowe

Uwaga, wersja testowa! Automatyczne pobieranie danych za pomocą narzędzi lub skryptów to umożliwiających jest zabronione.

Dane meteo z obszaru Polski uzyskane na podstawie depesz SYNOP pobieranych co godzinę z NWS. Najedź myszką na symbol przedstawiony w tabeli, aby uzyskać informacje co do jego znaczenia. Prosimy pamiętać, że to testowa wersja strony, która jeszcze nie jest ukończona. Stworzono również jest krótki FAQ dotyczący korzystania z tej podstrony Anomalie temperatury w chwili obecnej odniesione są do okresu referencyjnego 1951-2016. Okres ten będzie później zmieniony na 1981-2010. Kliknij ikonę aby pobrać plik CSV. Kliknij ikonę aby wygenerować mapę synoptyczną dla danego terminu.

Wybierz Datę:    

        

Mirosławiec (12226)

Dane terminowe dla wybranej stacji. Kliknij datę, aby otrzymać dane z tego terminu dla wszystkich stacji.

TemperaturaZachmurzenieWiatrCiśnienieOpadyPogoda
 Data t td wb tx tn tg rh  Nt Nl Cl Cm Ch ws wd g1 g2 wx mslp ppp ch 24h 12h t ww ww w1 w2  
2019-07-12 23:00:00 13.9 13.1 13.3--- 9510.0wxwxwxwx1----1009.8 991.9 -0.5---------
2019-07-12 22:00:00 14.6 13.8 14.0--- 9510.0wxwxwxwx1----1010.1 992.2 0.0---------
2019-07-12 21:00:00 15.4 14.8 14.9--- 9610.0wxwxwxwx1----1010.2 992.4 0.6---------
2019-07-12 20:00:00 15.9 14.4 14.8--- 9110.0wxwxwxwx0----1010.2 992.4 0.7---wx-w1--
2019-07-12 19:00:00 17.5 12.8 14.4--- 749.0wxwxwxwx2wx---1009.9 992.2 0.3---wx---
2019-07-12 18:00:00 18.2 12.7 14.6--- 7010.0wx-wx2wx---1009.4 991.8 -0.3---------
2019-07-12 17:00:00 19.1 11.4 14.3--- 6110.0wx-wx3wx---1009.3 991.7 -0.4---------
2019-07-12 16:00:00 19.4 12.4 15.0--- 6410.0wxwxwxwx3wx---1009.5 991.9 -0.1---------
2019-07-12 15:00:00 20.3 13.5 15.9--- 6510.0wxwxwxwx3wx---1009.6 992.1 0.2---wx-w1--
2019-07-12 14:00:00 19.6 13.1 15.4--- 6610.0wxwxwxwx3wx---1009.6 992.1 -0.1---wx---
2019-07-12 13:00:00 19.9 12.7 15.3--- 6310.0wxwxwxwx3wx---1009.5 992.0 -0.2---------
2019-07-12 12:00:00 21.6 10.8 15.1--- 5010.0wxwxwxwx3wx---1009.4 992.0 -0.3---------
2019-07-12 11:00:00 21.9 10.7 15.2--- 4910.0wxwxwxwx3wx---1009.6 992.2 -0.3---------
2019-07-12 10:00:00 22.7 8.1 14.4--- 3910.0wxwxwxwxwx1----1009.6 992.2 -0.5---------
2019-07-12 09:00:00 23.6 8.5 14.9--- 3810.0wxwxwxwx3wx---1009.6 992.3 -0.4---------
2019-07-12 08:00:00 22.2 7.2 13.8--- 3810.0wx-wx1----1009.9 992.5 -0.3---------
2019-07-12 07:00:00 20.5 10.3 14.4--- 5210.0wx-wx1----1010.2 992.7 -0.1---------
2019-07-12 06:00:00 17.9 13.4 14.9--- 7510.0wx-wx1----1010.4 992.7 -0.1---------
2019-07-12 05:00:00 13.1 11.7 12.1--- 9110.0wx-wx1----1010.8 992.8 -0.2---------
2019-07-12 04:00:00 9.5 9.0 9.1--- 9710.0wx-wx0----1010.9 992.7 -0.6---------
2019-07-12 03:00:00 8.4 8.1 8.1--- 9810.0wx-0----1011.1 992.8 -0.7---wx---
2019-07-12 02:00:00 8.5 8.1 8.2--- 9710.0wx-0----1011.3 993.0 -0.8---wx---
2019-07-12 01:00:00 8.6 7.8 8.0--- 9510.0wx-1wx---1011.6 993.3 -0.7---------
2019-07-12 00:00:00 9.5 8.4 8.7--- 9310.0wx-0----1011.8 993.5 -0.4---------
2019-07-11 23:00:00 10.2 8.8 9.2--- 9110.0wx-1----1012.0 993.8 -0.3---------
2019-07-11 22:00:00 10.9 8.5 9.3--- 8510.0wx-1----1012.2 994.0 0.0---------
2019-07-11 21:00:00 12.6 8.7 10.1--- 7710.0wx-1wx---1012.1 994.0 0.3---------
2019-07-11 20:00:00 13.8 8.6 10.6--- 7110.0wx-1wx---1012.1 994.1 0.5---------
2019-07-11 19:00:00 18.1 8.7 12.6--- 5410.0wx-wx2wx---1011.7 994.0 0.4---------
2019-07-11 18:00:00 19.9 8.3 13.2--- 4710.0wxwxwx3wx---1011.3 993.7 -0.1---------
2019-07-11 17:00:00 21.3 8.6 14.0--- 4410.0wxwxwx5wx---1011.1 993.6 -0.3---------
2019-07-11 16:00:00 22.1 9.0 14.5--- 4310.0wxwxwx6wx---1011.0 993.6 -0.6---------
2019-07-11 15:00:00 20.8 9.7 14.3--- 4910.0wxwxwx4wx---1011.3 993.8 -0.7---------
2019-07-11 14:00:00 22.8 9.9 15.2--- 4410.0wxwxwx4wx---1011.3 993.9 -0.7---------
2019-07-11 13:00:00 22.9 10.0 15.3--- 4410.0wxwxwx2----1011.6 994.2 -0.7---------
2019-07-11 12:00:00 20.3 11.0 14.6--- 5510.0wxwxwx4wx---1012.1 994.5 -0.7---------
2019-07-11 11:00:00 21.9 10.4 15.1--- 4810.0wxwxwx3wx---1012.1 994.6 -0.6---------
2019-07-11 10:00:00 21.0 9.6 14.3--- 4810.0wxwxwx2----1012.4 994.9 -0.2---------
2019-07-11 09:00:00 18.6 12.1 14.5--- 6610.0wxwxwx3wx---1012.9 995.2 0.0---------
2019-07-11 08:00:00 18.5 12.9 14.9--- 7010.0wxwxwx2wx---1012.9 995.2 0.0---------
2019-07-11 07:00:00 16.9 13.4 14.5--- 8010.0wxwxwx3wx---1012.9 995.1 0.2---------
2019-07-11 06:00:00 14.8 12.7 13.3--- 8710.0wxwxwx4wx---1013.1 995.2 0.4---------
2019-07-11 05:00:00 13.0 12.7 12.7--- 9810.0wx-3wx---1013.1 995.1 0.1---------
2019-07-11 04:00:00 10.6 10.6 10.5--- 1006.0wx-1----1013.1 994.9 -0.4---wx---
2019-07-11 03:00:00 9.7 9.7 9.6--- 1005.0wx-1----1013.1 994.8 -0.6---wx---
1.0 ms

 

Print Friendly, PDF & Email